createdAt,value
2018-06-10T00:01:40.395Z,52.93
2018-06-10T00:04:07.755Z,51.23
2018-06-10T00:06:35.068Z,55.90
2018-06-10T00:09:02.438Z,53.40
2018-06-10T00:11:29.878Z,50.47
2018-06-10T00:13:57.204Z,46.93
2018-06-10T00:16:24.888Z,50.50
2018-06-10T00:18:52.199Z,43.70
2018-06-10T00:21:19.599Z,44.67
2018-06-10T00:23:46.922Z,47.20
2018-06-10T00:26:14.275Z,44.30
2018-06-10T00:28:46.924Z,47.47
2018-06-10T00:31:14.246Z,43.30
2018-06-10T00:33:41.776Z,37.60
2018-06-10T00:36:09.359Z,41.70
2018-06-10T00:38:36.731Z,40.00
2018-06-10T00:41:04.169Z,38.80
2018-06-10T00:43:31.496Z,45.93
2018-06-10T00:45:58.851Z,46.20
2018-06-10T00:48:26.305Z,42.10
2018-06-10T00:50:53.614Z,38.53
2018-06-10T00:53:20.936Z,30.73
2018-06-10T00:55:48.256Z,32.90
2018-06-10T00:58:15.626Z,32.83
2018-06-10T01:00:43.155Z,32.43
2018-06-10T01:03:10.551Z,37.77
2018-06-10T01:05:44.669Z,37.30
2018-06-10T01:08:12.069Z,35.67
2018-06-10T01:10:39.653Z,37.40
2018-06-10T01:13:07.114Z,35.73
2018-06-10T01:15:34.439Z,34.33
2018-06-10T01:18:01.763Z,36.10
2018-06-10T01:20:29.114Z,36.57
2018-06-10T01:22:56.454Z,35.37
2018-06-10T01:25:23.791Z,34.93
2018-06-10T01:27:51.123Z,36.00
2018-06-10T01:30:18.490Z,37.47
2018-06-10T01:32:46.024Z,38.07
2018-06-10T01:35:13.345Z,38.17
2018-06-10T01:37:40.800Z,37.87
2018-06-10T01:40:08.227Z,38.53
2018-06-10T01:42:35.562Z,39.03
2018-06-10T01:45:02.914Z,40.40
2018-06-10T01:47:30.255Z,39.67
2018-06-10T01:49:57.723Z,43.17
2018-06-10T01:52:25.103Z,40.47
2018-06-10T01:54:52.563Z,40.80
2018-06-10T01:57:19.935Z,37.97
2018-06-10T01:59:47.449Z,40.63
2018-06-10T02:02:14.768Z,38.90
2018-06-10T02:04:42.276Z,42.73
2018-06-10T02:07:09.715Z,42.47
2018-06-10T02:09:37.103Z,40.77
2018-06-10T02:12:04.423Z,40.50
2018-06-10T02:14:31.822Z,42.80
2018-06-10T02:16:59.240Z,39.17
2018-06-10T02:19:26.759Z,36.73
2018-06-10T02:21:54.088Z,37.43
2018-06-10T02:24:21.502Z,39.80
2018-06-10T02:26:48.836Z,40.00
2018-06-10T02:29:16.399Z,40.80
2018-06-10T02:31:43.751Z,40.80
2018-06-10T02:34:11.054Z,40.90
2018-06-10T02:36:38.491Z,41.73
2018-06-10T02:39:06.790Z,41.10
2018-06-10T02:41:34.139Z,38.17
2018-06-10T02:44:01.463Z,31.53
2018-06-10T02:46:28.782Z,40.73
2018-06-10T02:48:56.207Z,38.23
2018-06-10T02:51:23.523Z,40.63
2018-06-10T02:53:50.887Z,44.13
2018-06-10T02:56:18.251Z,44.97
2018-06-10T02:58:45.704Z,48.10
2018-06-10T03:01:13.045Z,49.37
2018-06-10T03:03:40.371Z,38.43
2018-06-10T03:06:07.784Z,37.23
2018-06-10T03:08:35.184Z,39.63
2018-06-10T03:11:02.487Z,48.10
2018-06-10T03:13:29.918Z,56.20
2018-06-10T03:15:57.297Z,36.50
2018-06-10T03:18:24.599Z,29.10
2018-06-10T03:20:51.927Z,39.73
2018-06-10T03:23:19.260Z,43.60
2018-06-10T03:25:46.656Z,41.67
2018-06-10T03:28:13.987Z,46.90
2018-06-10T03:30:41.307Z,46.30
2018-06-10T03:33:08.659Z,49.23
2018-06-10T03:35:36.004Z,48.10
2018-06-10T03:38:03.347Z,46.90
2018-06-10T03:40:30.786Z,44.67
2018-06-10T03:42:58.108Z,35.30
2018-06-10T03:45:25.456Z,36.70
2018-06-10T03:47:52.758Z,39.00
2018-06-10T03:50:20.111Z,38.70
2018-06-10T03:52:47.459Z,40.63
2018-06-10T03:55:14.786Z,43.03
2018-06-10T03:57:42.155Z,35.00
2018-06-10T04:00:09.517Z,35.07
2018-06-10T04:02:36.828Z,38.13
2018-06-10T04:05:04.283Z,38.03
2018-06-10T04:07:31.735Z,29.17
2018-06-10T04:09:59.064Z,26.33
2018-06-10T04:12:26.412Z,26.30
2018-06-10T04:14:53.763Z,33.90
2018-06-10T04:17:21.351Z,33.50
2018-06-10T04:19:48.694Z,32.73
2018-06-10T04:22:16.020Z,34.07
2018-06-10T04:24:43.337Z,33.60
2018-06-10T04:27:10.680Z,33.77
2018-06-10T04:29:37.997Z,31.10
2018-06-10T04:32:05.410Z,32.97
2018-06-10T04:34:33.011Z,29.40
2018-06-10T04:37:00.358Z,31.37
2018-06-10T04:39:27.724Z,31.93
2018-06-10T04:41:55.044Z,30.50
2018-06-10T04:44:22.483Z,30.73
2018-06-10T04:46:49.893Z,32.37
2018-06-10T04:49:17.330Z,30.63
2018-06-10T04:51:44.679Z,30.30
2018-06-10T04:54:12.006Z,29.27
2018-06-10T04:56:39.331Z,30.20
2018-06-10T04:59:06.656Z,29.23
2018-06-10T05:01:34.036Z,31.60
2018-06-10T05:04:01.985Z,31.87
2018-06-10T05:06:29.327Z,34.90
2018-06-10T05:08:56.630Z,34.23
2018-06-10T05:11:23.964Z,36.20
2018-06-10T05:13:51.487Z,35.63
2018-06-10T05:16:18.819Z,41.70
2018-06-10T05:18:46.138Z,38.57
2018-06-10T05:21:13.482Z,44.30
2018-06-10T05:23:40.808Z,37.47
2018-06-10T05:26:08.183Z,42.40
2018-06-10T05:28:35.539Z,39.53
2018-06-10T05:31:02.891Z,39.03
2018-06-10T05:33:30.260Z,37.60
2018-06-10T05:35:57.795Z,37.00
2018-06-10T05:38:25.311Z,38.43
2018-06-10T05:40:52.636Z,34.27
2018-06-10T05:43:19.979Z,33.40
2018-06-10T05:45:47.307Z,40.87
2018-06-10T05:48:14.696Z,32.93
2018-06-10T05:50:42.019Z,29.23
2018-06-10T05:53:09.327Z,29.70
2018-06-10T05:55:36.671Z,27.70
2018-06-10T05:58:04.000Z,30.37
2018-06-10T06:00:31.332Z,29.57
2018-06-10T06:02:58.636Z,30.17
2018-06-10T06:05:25.995Z,30.47
2018-06-10T06:07:53.402Z,30.47
2018-06-10T06:10:20.869Z,30.60
2018-06-10T06:12:48.402Z,31.30
2018-06-10T06:15:15.782Z,30.70
2018-06-10T06:17:43.127Z,29.00
2018-06-10T06:20:10.491Z,30.27
2018-06-10T06:22:37.818Z,29.57
2018-06-10T06:25:05.211Z,28.80
2018-06-10T06:27:32.534Z,29.63
2018-06-10T06:29:59.883Z,29.00
2018-06-10T06:32:27.300Z,28.20
2018-06-10T06:34:54.675Z,30.37
2018-06-10T06:37:22.158Z,31.33
2018-06-10T06:39:49.479Z,31.67
2018-06-10T06:42:16.871Z,32.73
2018-06-10T06:44:44.340Z,33.33
2018-06-10T06:47:11.737Z,33.17
2018-06-10T06:49:39.007Z,33.37
2018-06-10T06:52:06.338Z,35.57
2018-06-10T06:54:33.748Z,36.13
2018-06-10T06:57:01.095Z,35.83
2018-06-10T06:59:28.440Z,34.80
2018-06-10T07:01:55.842Z,38.03
2018-06-10T07:04:23.282Z,38.37
2018-06-10T07:06:50.612Z,40.00
2018-06-10T07:09:18.174Z,38.43
2018-06-10T07:11:45.580Z,38.37
2018-06-10T07:14:12.912Z,39.63
2018-06-10T07:16:40.283Z,41.20
2018-06-10T07:19:07.588Z,42.63
2018-06-10T07:21:34.944Z,41.40
2018-06-10T07:24:02.324Z,40.20
2018-06-10T07:26:29.763Z,42.27
2018-06-10T07:28:57.130Z,41.20
2018-06-10T07:31:24.467Z,43.40
2018-06-10T07:33:52.012Z,42.63
2018-06-10T07:36:19.384Z,43.37
2018-06-10T07:38:46.739Z,43.63
2018-06-10T07:41:14.116Z,43.43
2018-06-10T07:43:41.667Z,46.13
2018-06-10T07:46:08.994Z,45.00
2018-06-10T07:48:37.027Z,48.07
2018-06-10T07:51:04.456Z,48.70
2018-06-10T07:53:31.788Z,49.53
2018-06-10T07:55:59.153Z,47.80
2018-06-10T07:58:26.491Z,46.47
2018-06-10T08:00:53.863Z,46.20
2018-06-10T08:03:21.256Z,43.13
2018-06-10T08:05:48.624Z,44.17
2018-06-10T08:08:16.007Z,45.83
2018-06-10T08:10:43.409Z,46.13
2018-06-10T08:13:10.788Z,42.13
2018-06-10T08:15:38.171Z,41.87
2018-06-10T08:18:05.564Z,44.63
2018-06-10T08:20:33.091Z,44.23
2018-06-10T08:23:00.442Z,45.83
2018-06-10T08:25:27.790Z,62.67
2018-06-10T08:27:55.176Z,57.60
2018-06-10T08:30:22.508Z,57.37
2018-06-10T08:32:49.892Z,57.60
2018-06-10T08:35:17.234Z,64.87
2018-06-10T08:37:44.839Z,64.77
2018-06-10T08:40:12.358Z,61.67
2018-06-10T08:42:39.740Z,63.83
2018-06-10T08:45:07.091Z,66.43
2018-06-10T08:47:34.560Z,71.20
2018-06-10T08:50:01.984Z,73.40
2018-06-10T08:52:29.306Z,79.57
2018-06-10T08:54:56.682Z,78.90
2018-06-10T08:57:24.037Z,82.20
2018-06-10T08:59:51.436Z,83.70
2018-06-10T09:02:18.919Z,85.80
2018-06-10T09:04:46.282Z,83.63
2018-06-10T09:07:13.860Z,82.53
2018-06-10T09:09:41.222Z,86.33
2018-06-10T09:12:08.599Z,84.03
2018-06-10T09:14:35.976Z,89.50
2018-06-10T09:17:03.363Z,87.13
2018-06-10T09:19:30.735Z,90.00
2018-06-10T09:21:58.176Z,90.57
2018-06-10T09:24:25.684Z,89.07
2018-06-10T09:26:53.030Z,89.30
2018-06-10T09:29:20.342Z,83.67
2018-06-10T09:31:47.716Z,90.67
2018-06-10T09:34:15.369Z,88.10
2018-06-10T09:36:42.733Z,87.70
2018-06-10T09:39:10.081Z,99.07
2018-06-10T09:41:37.452Z,93.73
2018-06-10T09:44:04.882Z,87.40
2018-06-10T09:46:32.220Z,89.17
2018-06-10T09:48:59.587Z,92.43
2018-06-10T09:51:26.918Z,91.53
2018-06-10T09:53:54.288Z,95.20
2018-06-10T09:56:21.721Z,91.60
2018-06-10T09:58:49.048Z,90.63
2018-06-10T10:01:16.392Z,91.27
2018-06-10T10:03:43.715Z,93.83
2018-06-10T10:06:11.146Z,90.50
2018-06-10T10:08:38.648Z,88.87
2018-06-10T10:11:06.239Z,86.33
2018-06-10T10:13:33.550Z,82.67
2018-06-10T10:16:01.023Z,82.40
2018-06-10T10:18:28.511Z,80.10
2018-06-10T10:20:55.857Z,83.20
2018-06-10T10:23:23.294Z,88.00
2018-06-10T10:25:50.640Z,81.83
2018-06-10T10:28:17.972Z,85.67
2018-06-10T10:30:45.443Z,85.17
2018-06-10T10:33:13.123Z,85.20
2018-06-10T10:35:40.473Z,84.20
2018-06-10T10:38:07.808Z,81.60
2018-06-10T10:40:35.151Z,83.70
2018-06-10T10:43:02.631Z,80.87
2018-06-10T10:45:30.037Z,77.50
2018-06-10T10:47:57.481Z,76.07
2018-06-10T10:50:24.875Z,78.17
2018-06-10T10:52:52.472Z,80.67
2018-06-10T10:55:19.965Z,78.07
2018-06-10T10:57:47.456Z,79.43
2018-06-10T11:00:14.839Z,81.60
2018-06-10T11:02:42.243Z,81.03
2018-06-10T11:05:09.990Z,83.93
2018-06-10T11:07:37.511Z,87.57
2018-06-10T11:10:04.948Z,84.43
2018-06-10T11:12:32.423Z,79.70
2018-06-10T11:14:59.840Z,79.00
2018-06-10T11:17:27.307Z,73.20
2018-06-10T11:19:54.764Z,75.03
2018-06-10T11:22:22.495Z,74.23
2018-06-10T11:24:50.111Z,69.87
2018-06-10T11:27:17.566Z,64.67
2018-06-10T11:29:44.925Z,63.90
2018-06-10T11:32:12.523Z,55.97
2018-06-10T11:34:39.950Z,53.77
2018-06-10T11:37:07.428Z,51.43
2018-06-10T11:39:34.906Z,48.70
2018-06-10T11:42:02.478Z,45.37
2018-06-10T11:44:29.840Z,43.07
2018-06-10T11:46:57.521Z,42.37
2018-06-10T11:49:24.976Z,38.67
2018-06-10T11:51:52.385Z,36.53
2018-06-10T11:54:19.769Z,36.63
2018-06-10T11:56:47.288Z,35.20
2018-06-10T11:59:14.822Z,31.30
2018-06-10T12:01:42.526Z,31.80
2018-06-10T12:04:10.026Z,32.03
2018-06-10T12:06:37.409Z,30.20
2018-06-10T12:09:06.348Z,32.00
2018-06-10T12:11:33.666Z,31.37
2018-06-10T12:14:01.032Z,30.87
2018-06-10T12:16:28.425Z,30.87
2018-06-10T12:18:55.812Z,29.10
2018-06-10T12:21:23.440Z,28.90
2018-06-10T12:23:50.852Z,29.50
2018-06-10T12:26:18.264Z,28.43
2018-06-10T12:28:45.596Z,26.17
2018-06-10T12:31:13.053Z,27.40
2018-06-10T12:33:40.582Z,25.23
2018-06-10T12:36:08.175Z,26.80
2018-06-10T12:38:35.512Z,26.40
2018-06-10T12:41:03.007Z,26.70
2018-06-10T12:43:30.331Z,28.10
2018-06-10T12:45:57.658Z,28.83
2018-06-10T12:48:25.216Z,28.70
2018-06-10T12:50:52.716Z,27.73
2018-06-10T12:53:20.049Z,26.90
2018-06-10T12:55:47.416Z,28.13
2018-06-10T12:58:14.776Z,24.73
2018-06-10T13:00:42.124Z,23.93
2018-06-10T13:03:09.543Z,22.07
2018-06-10T13:05:37.122Z,22.40
2018-06-10T13:08:04.618Z,22.57
2018-06-10T13:10:32.113Z,23.17
2018-06-10T13:12:59.591Z,20.27
2018-06-10T13:15:27.046Z,20.83
2018-06-10T13:17:54.399Z,19.70
2018-06-10T13:20:21.797Z,19.63
2018-06-10T13:22:49.311Z,18.67
2018-06-10T13:25:16.653Z,19.80
2018-06-10T13:27:44.204Z,17.00
2018-06-10T13:30:11.773Z,19.07
2018-06-10T13:32:39.139Z,17.50
2018-06-10T13:35:06.649Z,18.30
2018-06-10T13:37:34.060Z,15.20
2018-06-10T13:40:01.515Z,19.10
2018-06-10T13:42:28.859Z,19.20
2018-06-10T13:44:56.222Z,18.17
2018-06-10T13:47:23.571Z,19.37
2018-06-10T13:49:51.153Z,17.80
2018-06-10T13:52:18.609Z,14.83
2018-06-10T13:54:46.132Z,16.17
2018-06-10T13:57:13.640Z,16.70
2018-06-10T13:59:41.151Z,15.93
2018-06-10T14:02:08.635Z,20.10
2018-06-10T14:04:36.079Z,20.40
2018-06-10T14:07:03.472Z,18.77
2018-06-10T14:09:30.773Z,18.33
2018-06-10T14:11:58.115Z,19.57
2018-06-10T14:14:25.587Z,19.27
2018-06-10T14:16:52.979Z,18.47
2018-06-10T14:19:20.300Z,17.40
2018-06-10T14:21:47.643Z,16.03
2018-06-10T14:24:15.060Z,15.80
2018-06-10T14:26:42.484Z,14.47
2018-06-10T14:29:09.910Z,15.07
2018-06-10T14:31:37.392Z,15.87
2018-06-10T14:34:04.806Z,16.37
2018-06-10T14:36:32.300Z,15.20
2018-06-10T14:39:00.248Z,14.40
2018-06-10T14:41:27.788Z,13.67
2018-06-10T14:43:55.205Z,14.93
2018-06-10T14:46:22.735Z,14.30
2018-06-10T14:48:50.047Z,14.20
2018-06-10T14:51:17.457Z,15.87
2018-06-10T14:53:44.848Z,13.70
2018-06-10T14:56:12.212Z,13.40
2018-06-10T14:58:39.612Z,13.97
2018-06-10T15:01:06.979Z,12.97
2018-06-10T15:03:34.393Z,13.20
2018-06-10T15:06:01.892Z,11.43
2018-06-10T15:08:29.304Z,12.27
2018-06-10T15:10:56.691Z,14.80
2018-06-10T15:13:24.175Z,14.17
2018-06-10T15:15:51.539Z,13.43
2018-06-10T15:18:18.976Z,13.13
2018-06-10T15:20:46.400Z,13.10
2018-06-10T15:23:13.773Z,13.37
2018-06-10T15:25:41.161Z,14.27
2018-06-10T15:28:08.711Z,12.10
2018-06-10T15:30:36.100Z,11.73
2018-06-10T15:33:03.559Z,11.90
2018-06-10T15:35:30.991Z,10.93
2018-06-10T15:37:58.333Z,13.17
2018-06-10T15:40:25.796Z,11.43
2018-06-10T15:42:53.351Z,10.80
2018-06-10T15:45:20.965Z,11.80
2018-06-10T15:47:48.361Z,11.40
2018-06-10T15:50:15.845Z,11.93
2018-06-10T15:52:43.183Z,11.73
2018-06-10T15:55:10.531Z,11.23
2018-06-10T15:57:37.935Z,11.50
2018-06-10T16:00:05.303Z,11.57
2018-06-10T16:02:32.776Z,10.87
2018-06-10T16:05:00.404Z,10.43
2018-06-10T16:07:27.755Z,11.67
2018-06-10T16:09:55.230Z,10.90
2018-06-10T16:12:22.593Z,9.77
2018-06-10T16:14:50.036Z,10.63
2018-06-10T16:17:17.403Z,11.57
2018-06-10T16:19:44.736Z,10.67
2018-06-10T16:22:12.283Z,10.83
2018-06-10T16:24:39.691Z,10.47
2018-06-10T16:27:07.051Z,10.90
2018-06-10T16:29:34.440Z,10.50
2018-06-10T16:32:02.119Z,13.43
2018-06-10T16:34:29.571Z,10.10
2018-06-10T16:36:56.928Z,10.43
2018-06-10T16:39:24.391Z,10.43
2018-06-10T16:41:51.794Z,11.77
2018-06-10T16:44:19.156Z,10.20
2018-06-10T16:46:46.524Z,11.37
2018-06-10T16:49:13.897Z,11.83
2018-06-10T16:51:41.364Z,11.23
2018-06-10T16:54:08.931Z,9.87
2018-06-10T16:56:36.322Z,11.70
2018-06-10T16:59:03.663Z,10.40
2018-06-10T17:01:31.204Z,9.47
2018-06-10T17:03:58.588Z,10.67
2018-06-10T17:06:25.937Z,10.73
2018-06-10T17:08:53.500Z,10.90
2018-06-10T17:11:20.831Z,10.20
2018-06-10T17:13:48.213Z,11.13
2018-06-10T17:16:15.598Z,10.50
2018-06-10T17:18:42.965Z,10.03
2018-06-10T17:21:10.431Z,10.63
2018-06-10T17:23:37.761Z,9.50
2018-06-10T17:26:05.216Z,9.50
2018-06-10T17:28:32.537Z,10.97
2018-06-10T17:30:59.906Z,9.30
2018-06-10T17:33:27.226Z,8.53
2018-06-10T17:35:54.584Z,10.20
2018-06-10T17:38:21.969Z,10.87
2018-06-10T17:40:49.317Z,11.73
2018-06-10T17:43:17.664Z,11.00
2018-06-10T17:45:45.066Z,12.77
2018-06-10T17:48:12.518Z,10.77
2018-06-10T17:50:40.036Z,12.27
2018-06-10T17:53:07.577Z,10.70
2018-06-10T17:55:35.044Z,10.60
2018-06-10T17:58:02.467Z,9.53
2018-06-10T18:00:29.891Z,11.97
2018-06-10T18:02:57.367Z,10.37
2018-06-10T18:05:24.771Z,10.30
2018-06-10T18:07:52.119Z,11.13
2018-06-10T18:10:19.731Z,9.67
2018-06-10T18:12:47.225Z,10.70
2018-06-10T18:15:14.665Z,10.30
2018-06-10T18:17:42.030Z,9.67
2018-06-10T18:20:09.500Z,10.73
2018-06-10T18:22:36.836Z,9.77
2018-06-10T18:25:04.411Z,9.27
2018-06-10T18:27:31.784Z,9.10
2018-06-10T18:29:59.199Z,9.40
2018-06-10T18:32:26.572Z,9.53
2018-06-10T18:34:54.002Z,9.77
2018-06-10T18:37:21.544Z,9.20
2018-06-10T18:39:49.080Z,10.50
2018-06-10T18:42:16.515Z,10.57
2018-06-10T18:44:43.915Z,9.47
2018-06-10T18:47:11.446Z,9.57
2018-06-10T18:49:38.851Z,9.23
2018-06-10T18:52:06.223Z,10.00
2018-06-10T18:54:33.608Z,10.60
2018-06-10T18:57:00.936Z,9.40
2018-06-10T18:59:28.281Z,10.00
2018-06-10T19:01:55.655Z,11.20
2018-06-10T19:04:23.007Z,12.13
2018-06-10T19:06:50.388Z,10.60
2018-06-10T19:09:17.827Z,10.80
2018-06-10T19:11:45.224Z,14.17
2018-06-10T19:14:12.552Z,11.23
2018-06-10T19:16:40.056Z,12.03
2018-06-10T19:19:07.405Z,12.00
2018-06-10T19:21:34.811Z,10.60
2018-06-10T19:24:02.141Z,14.00
2018-06-10T19:26:29.571Z,11.57
2018-06-10T19:28:56.915Z,10.43
2018-06-10T19:31:24.280Z,11.20
2018-06-10T19:33:51.688Z,11.30
2018-06-10T19:36:19.094Z,10.70
2018-06-10T19:38:46.471Z,11.40
2018-06-10T19:41:13.829Z,12.10
2018-06-10T19:43:41.189Z,11.90
2018-06-10T19:46:08.819Z,11.43
2018-06-10T19:48:36.214Z,12.60
2018-06-10T19:51:03.551Z,13.07
2018-06-10T19:53:30.997Z,13.80
2018-06-10T19:55:58.376Z,14.73
2018-06-10T19:58:25.723Z,13.60
2018-06-10T20:00:53.199Z,14.77
2018-06-10T20:03:20.744Z,13.43
2018-06-10T20:05:48.301Z,13.70
2018-06-10T20:08:15.912Z,13.27
2018-06-10T20:10:43.485Z,13.70
2018-06-10T20:13:10.944Z,14.73
2018-06-10T20:15:38.394Z,13.73
2018-06-10T20:18:05.960Z,12.57
2018-06-10T20:20:33.431Z,14.73
2018-06-10T20:23:00.764Z,13.77
2018-06-10T20:25:28.214Z,13.20
2018-06-10T20:27:55.712Z,13.80
2018-06-10T20:30:23.271Z,15.00
2018-06-10T20:32:50.512Z,14.73
2018-06-10T20:35:18.156Z,14.63
2018-06-10T20:37:45.555Z,14.83
2018-06-10T20:40:12.900Z,15.27
2018-06-10T20:42:40.315Z,15.67
2018-06-10T20:45:07.663Z,14.23
2018-06-10T20:47:35.021Z,14.60
2018-06-10T20:50:02.479Z,14.73
2018-06-10T20:52:29.847Z,14.13
2018-06-10T20:54:57.268Z,16.60
2018-06-10T20:57:24.716Z,15.43
2018-06-10T20:59:52.115Z,16.03
2018-06-10T21:02:19.479Z,15.10
2018-06-10T21:04:46.931Z,21.90
2018-06-10T21:07:14.313Z,15.47
2018-06-10T21:09:41.663Z,15.57
2018-06-10T21:12:09.057Z,14.87
2018-06-10T21:14:36.456Z,16.37
2018-06-10T21:17:04.367Z,17.77
2018-06-10T21:19:31.727Z,17.53
2018-06-10T21:21:59.082Z,16.50
2018-06-10T21:24:26.424Z,16.60
2018-06-10T21:26:53.798Z,16.80
2018-06-10T21:29:21.195Z,18.70
2018-06-10T21:31:48.684Z,17.97
2018-06-10T21:34:16.064Z,18.30
2018-06-10T21:36:43.480Z,17.67
2018-06-10T21:39:10.933Z,17.53
2018-06-10T21:41:40.485Z,16.83
2018-06-10T21:44:09.121Z,17.37
2018-06-10T21:46:36.760Z,19.33
2018-06-10T21:49:04.130Z,19.00
2018-06-10T21:51:31.449Z,18.50
2018-06-10T21:53:58.815Z,18.43
2018-06-10T21:56:26.200Z,18.37
2018-06-10T21:58:53.560Z,19.60
2018-06-10T22:01:20.912Z,19.13
2018-06-10T22:03:48.243Z,18.80
2018-06-10T22:06:15.613Z,20.00
2018-06-10T22:08:42.958Z,18.70
2018-06-10T22:11:10.423Z,20.03
2018-06-10T22:13:37.798Z,23.53
2018-06-10T22:16:05.396Z,21.37
2018-06-10T22:18:32.938Z,20.20
2018-06-10T22:21:00.278Z,19.77
2018-06-10T22:23:27.663Z,19.50
2018-06-10T22:25:55.000Z,20.90
2018-06-10T22:28:22.311Z,21.10
2018-06-10T22:30:49.679Z,20.20
2018-06-10T22:33:17.043Z,20.00
2018-06-10T22:35:44.571Z,21.80
2018-06-10T22:38:11.891Z,22.20
2018-06-10T22:40:39.243Z,21.50
2018-06-10T22:43:06.601Z,20.73
2018-06-10T22:45:33.961Z,23.13
2018-06-10T22:48:01.311Z,25.23
2018-06-10T22:50:28.743Z,22.10
2018-06-10T22:53:02.684Z,21.23
2018-06-10T22:55:30.134Z,20.10
2018-06-10T22:57:57.518Z,21.07
2018-06-10T23:00:24.895Z,21.83
2018-06-10T23:02:52.201Z,21.03
2018-06-10T23:05:19.524Z,21.20
2018-06-10T23:07:46.835Z,20.17
2018-06-10T23:10:14.344Z,19.87
2018-06-10T23:12:41.710Z,19.60
2018-06-10T23:15:09.115Z,20.77
2018-06-10T23:17:36.515Z,21.60
2018-06-10T23:20:03.965Z,21.13
2018-06-10T23:22:31.341Z,22.70
2018-06-10T23:24:58.775Z,20.37
2018-06-10T23:27:26.103Z,22.57
2018-06-10T23:29:53.429Z,18.87
2018-06-10T23:32:21.040Z,20.40
2018-06-10T23:34:48.371Z,22.03
2018-06-10T23:37:15.824Z,21.83
2018-06-10T23:39:43.155Z,20.17
2018-06-10T23:42:10.519Z,21.13
2018-06-10T23:44:37.944Z,20.27
2018-06-10T23:47:05.552Z,18.33
2018-06-10T23:49:32.863Z,20.10
2018-06-10T23:52:00.324Z,22.47
2018-06-10T23:54:27.638Z,20.97
2018-06-10T23:56:55.009Z,21.80
2018-06-10T23:59:22.340Z,21.30
